sensor_id;sensor_type;location;lat;lon;timestamp;pressure;altitude;pressure_sealevel;temperature;humidity
26489;BME280;14169;43.684;10.484;2023-03-23T00:01:00;101741.06;;;12.35;100.00
26489;BME280;14169;43.684;10.484;2023-03-23T00:03:26;101737.53;;;12.37;100.00
26489;BME280;14169;43.684;10.484;2023-03-23T00:06:00;101739.28;;;12.37;100.00
26489;BME280;14169;43.684;10.484;2023-03-23T00:08:27;101742.72;;;12.39;100.00
26489;BME280;14169;43.684;10.484;2023-03-23T00:10:53;101740.09;;;12.39;100.00
26489;BME280;14169;43.684;10.484;2023-03-23T00:13:24;101743.59;;;12.39;100.00
26489;BME280;14169;43.684;10.484;2023-03-23T00:15:50;101742.59;;;12.43;100.00
26489;BME280;14169;43.684;10.484;2023-03-23T00:18:20;101744.28;;;12.46;100.00
26489;BME280;14169;43.684;10.484;2023-03-23T00:20:50;101744.13;;;12.52;100.00
26489;BME280;14169;43.684;10.484;2023-03-23T00:23:17;101747.66;;;12.51;100.00
26489;BME280;14169;43.684;10.484;2023-03-23T00:25:47;101752.84;;;12.52;100.00
26489;BME280;14169;43.684;10.484;2023-03-23T00:28:13;101751.84;;;12.58;100.00
26489;BME280;14169;43.684;10.484;2023-03-23T00:30:39;101756.09;;;12.62;100.00
26489;BME280;14169;43.684;10.484;2023-03-23T00:33:07;101753.44;;;12.63;100.00
26489;BME280;14169;43.684;10.484;2023-03-23T00:35:33;101751.69;;;12.64;100.00
26489;BME280;14169;43.684;10.484;2023-03-23T00:37:59;101751.63;;;12.65;100.00
26489;BME280;14169;43.684;10.484;2023-03-23T00:40:25;101751.78;;;12.59;100.00
26489;BME280;14169;43.684;10.484;2023-03-23T00:42:51;101748.34;;;12.57;100.00
26489;BME280;14169;43.684;10.484;2023-03-23T00:45:17;101754.50;;;12.56;100.00
26489;BME280;14169;43.684;10.484;2023-03-23T00:47:42;101746.06;;;12.44;100.00
26489;BME280;14169;43.684;10.484;2023-03-23T00:50:12;101747.19;;;12.34;100.00
26489;BME280;14169;43.684;10.484;2023-03-23T00:52:39;101739.47;;;12.28;100.00
26489;BME280;14169;43.684;10.484;2023-03-23T00:55:06;101736.16;;;12.21;100.00
26489;BME280;14169;43.684;10.484;2023-03-23T00:57:32;101732.75;;;12.18;100.00
26489;BME280;14169;43.684;10.484;2023-03-23T00:59:57;101725.88;;;12.14;100.00
26489;BME280;14169;43.684;10.484;2023-03-23T01:02:23;101724.31;;;12.07;100.00
26489;BME280;14169;43.684;10.484;2023-03-23T01:04:50;101734.06;;;11.99;100.00
26489;BME280;14169;43.684;10.484;2023-03-23T01:07:18;101727.19;;;11.92;100.00
26489;BME280;14169;43.684;10.484;2023-03-23T01:09:44;101728.06;;;11.92;100.00
26489;BME280;14169;43.684;10.484;2023-03-23T01:12:11;101722.06;;;11.89;100.00
26489;BME280;14169;43.684;10.484;2023-03-23T01:14:36;101717.75;;;11.86;100.00
26489;BME280;14169;43.684;10.484;2023-03-23T01:17:02;101716.88;;;11.86;100.00
26489;BME280;14169;43.684;10.484;2023-03-23T01:19:27;101717.78;;;11.85;100.00
26489;BME280;14169;43.684;10.484;2023-03-23T01:21:53;101717.72;;;11.88;100.00
26489;BME280;14169;43.684;10.484;2023-03-23T01:24:18;101715.09;;;11.89;100.00
26489;BME280;14169;43.684;10.484;2023-03-23T01:26:44;101704.66;;;11.88;100.00
26489;BME280;14169;43.684;10.484;2023-03-23T01:29:10;101710.75;;;11.88;100.00
26489;BME280;14169;43.684;10.484;2023-03-23T01:31:35;101706.44;;;11.86;100.00
26489;BME280;14169;43.684;10.484;2023-03-23T01:34:02;101705.69;;;11.80;100.00
26489;BME280;14169;43.684;10.484;2023-03-23T01:36:29;101698.66;;;11.84;100.00
26489;BME280;14169;43.684;10.484;2023-03-23T01:38:59;101699.44;;;11.88;100.00
26489;BME280;14169;43.684;10.484;2023-03-23T01:41:26;101695.13;;;11.87;100.00
26489;BME280;14169;43.684;10.484;2023-03-23T01:46:53;101691.69;;;11.85;100.00
26489;BME280;14169;43.684;10.484;2023-03-23T01:49:33;101692.53;;;11.85;100.00
26489;BME280;14169;43.684;10.484;2023-03-23T01:52:08;101690.81;;;11.84;100.00
26489;BME280;14169;43.684;10.484;2023-03-23T01:54:36;101689.94;;;11.83;100.00
26489;BME280;14169;43.684;10.484;2023-03-23T01:57:19;101684.72;;;11.83;100.00
26489;BME280;14169;43.684;10.484;2023-03-23T01:59:50;101687.31;;;11.85;100.00
26489;BME280;14169;43.684;10.484;2023-03-23T02:02:19;101688.88;;;11.94;100.00
26489;BME280;14169;43.684;10.484;2023-03-23T02:04:46;101688.84;;;11.97;100.00
26489;BME280;14169;43.684;10.484;2023-03-23T02:07:14;101688.75;;;12.01;100.00
26489;BME280;14169;43.684;10.484;2023-03-23T02:09:40;101693.09;;;12.01;100.00
26489;BME280;14169;43.684;10.484;2023-03-23T02:12:06;101688.69;;;12.03;100.00
26489;BME280;14169;43.684;10.484;2023-03-23T02:14:31;101692.09;;;12.06;100.00
26489;BME280;14169;43.684;10.484;2023-03-23T02:17:10;101693.81;;;12.07;100.00
26489;BME280;14169;43.684;10.484;2023-03-23T02:36:38;101685.16;;;12.05;100.00
26489;BME280;14169;43.684;10.484;2023-03-23T02:41:43;101682.44;;;12.10;100.00
26489;BME280;14169;43.684;10.484;2023-03-23T02:44:11;101680.69;;;12.10;100.00
26489;BME280;14169;43.684;10.484;2023-03-23T02:46:39;101681.47;;;12.14;100.00
26489;BME280;14169;43.684;10.484;2023-03-23T02:49:06;101679.81;;;12.10;100.00
26489;BME280;14169;43.684;10.484;2023-03-23T02:51:34;101679.81;;;12.11;100.00
26489;BME280;14169;43.684;10.484;2023-03-23T02:54:01;101678.94;;;12.11;100.00
26489;BME280;14169;43.684;10.484;2023-03-23T02:56:28;101682.44;;;12.10;100.00
26489;BME280;14169;43.684;10.484;2023-03-23T02:58:55;101686.00;;;12.07;100.00
26489;BME280;14169;43.684;10.484;2023-03-23T03:03:59;101677.06;;;12.16;100.00
26489;BME280;14169;43.684;10.484;2023-03-23T03:06:37;101677.94;;;12.16;100.00
26489;BME280;14169;43.684;10.484;2023-03-23T03:11:48;101672.03;;;12.08;100.00
26489;BME280;14169;43.684;10.484;2023-03-23T03:14:26;101671.97;;;12.10;100.00
26489;BME280;14169;43.684;10.484;2023-03-23T03:17:18;101678.06;;;12.10;100.00
26489;BME280;14169;43.684;10.484;2023-03-23T03:19:48;101668.50;;;12.11;100.00
26489;BME280;14169;43.684;10.484;2023-03-23T03:22:15;101666.75;;;12.10;100.00
26489;BME280;14169;43.684;10.484;2023-03-23T03:24:42;101666.84;;;12.07;100.00
26489;BME280;14169;43.684;10.484;2023-03-23T03:27:17;101670.47;;;12.01;100.00
26489;BME280;14169;43.684;10.484;2023-03-23T03:29:47;101669.66;;;11.98;100.00
26489;BME280;14169;43.684;10.484;2023-03-23T03:32:19;101674.09;;;11.94;100.00
26489;BME280;14169;43.684;10.484;2023-03-23T03:34:46;101668.97;;;11.88;100.00
26489;BME280;14169;43.684;10.484;2023-03-23T03:37:13;101674.16;;;11.90;100.00
26489;BME280;14169;43.684;10.484;2023-03-23T03:39:39;101674.19;;;11.88;100.00
26489;BME280;14169;43.684;10.484;2023-03-23T03:42:05;101673.31;;;11.88;100.00
26489;BME280;14169;43.684;10.484;2023-03-23T03:44:32;101669.06;;;11.85;100.00
26489;BME280;14169;43.684;10.484;2023-03-23T03:46:58;101670.00;;;11.81;100.00
26489;BME280;14169;43.684;10.484;2023-03-23T03:49:23;101677.84;;;11.79;100.00
26489;BME280;14169;43.684;10.484;2023-03-23T03:51:48;101670.84;;;11.81;100.00
26489;BME280;14169;43.684;10.484;2023-03-23T03:54:14;101676.06;;;11.81;100.00
26489;BME280;14169;43.684;10.484;2023-03-23T03:56:40;101669.16;;;11.80;100.00
26489;BME280;14169;43.684;10.484;2023-03-23T03:59:08;101664.09;;;11.73;100.00
26489;BME280;14169;43.684;10.484;2023-03-23T04:01:37;101672.09;;;11.64;100.00
26489;BME280;14169;43.684;10.484;2023-03-23T04:04:04;101669.66;;;11.56;100.00
26489;BME280;14169;43.684;10.484;2023-03-23T04:06:32;101674.97;;;11.53;100.00
26489;BME280;14169;43.684;10.484;2023-03-23T04:08:58;101673.31;;;11.49;100.00
26489;BME280;14169;43.684;10.484;2023-03-23T04:11:26;101668.97;;;11.48;100.00
26489;BME280;14169;43.684;10.484;2023-03-23T04:13:51;101668.78;;;11.57;100.00
26489;BME280;14169;43.684;10.484;2023-03-23T04:16:17;101679.09;;;11.62;100.00
26489;BME280;14169;43.684;10.484;2023-03-23T04:18:43;101679.94;;;11.64;100.00
26489;BME280;14169;43.684;10.484;2023-03-23T04:21:09;101683.38;;;11.67;100.00
26489;BME280;14169;43.684;10.484;2023-03-23T04:23:35;101687.63;;;11.70;100.00
26489;BME280;14169;43.684;10.484;2023-03-23T04:26:01;101681.50;;;11.72;100.00
26489;BME280;14169;43.684;10.484;2023-03-23T04:28:28;101688.47;;;11.73;100.00
26489;BME280;14169;43.684;10.484;2023-03-23T04:30:55;101690.19;;;11.73;100.00
26489;BME280;14169;43.684;10.484;2023-03-23T04:33:23;101690.25;;;11.70;100.00
26489;BME280;14169;43.684;10.484;2023-03-23T04:35:50;101691.13;;;11.70;100.00
26489;BME280;14169;43.684;10.484;2023-03-23T04:38:17;101685.06;;;11.68;100.00
26489;BME280;14169;43.684;10.484;2023-03-23T04:40:47;101700.81;;;11.65;100.00
26489;BME280;14169;43.684;10.484;2023-03-23T04:43:13;101710.34;;;11.66;100.00
26489;BME280;14169;43.684;10.484;2023-03-23T04:45:40;101708.59;;;11.67;100.00
26489;BME280;14169;43.684;10.484;2023-03-23T04:48:07;101701.66;;;11.66;100.00
26489;BME280;14169;43.684;10.484;2023-03-23T04:50:33;101710.31;;;11.68;100.00
26489;BME280;14169;43.684;10.484;2023-03-23T04:53:00;101709.44;;;11.69;100.00
26489;BME280;14169;43.684;10.484;2023-03-23T04:55:33;101704.16;;;11.70;100.00
26489;BME280;14169;43.684;10.484;2023-03-23T04:58:06;101698.91;;;11.72;100.00
26489;BME280;14169;43.684;10.484;2023-03-23T05:00:33;101698.91;;;11.73;100.00
26489;BME280;14169;43.684;10.484;2023-03-23T05:02:59;101709.34;;;11.73;100.00
26489;BME280;14169;43.684;10.484;2023-03-23T05:05:26;101703.13;;;11.79;100.00
26489;BME280;14169;43.684;10.484;2023-03-23T05:07:53;101698.72;;;11.79;100.00
26489;BME280;14169;43.684;10.484;2023-03-23T05:10:18;101710.88;;;11.82;100.00
26489;BME280;14169;43.684;10.484;2023-03-23T05:12:44;101704.78;;;11.81;100.00
26489;BME280;14169;43.684;10.484;2023-03-23T05:15:11;101709.13;;;11.82;100.00
26489;BME280;14169;43.684;10.484;2023-03-23T05:17:38;101703.16;;;11.77;100.00
26489;BME280;14169;43.684;10.484;2023-03-23T05:20:04;101711.03;;;11.74;100.00
26489;BME280;14169;43.684;10.484;2023-03-23T05:22:36;101713.72;;;11.71;100.00
26489;BME280;14169;43.684;10.484;2023-03-23T05:25:02;101716.34;;;11.71;100.00
26489;BME280;14169;43.684;10.484;2023-03-23T05:27:28;101711.94;;;11.73;100.00
26489;BME280;14169;43.684;10.484;2023-03-23T05:29:55;101712.78;;;11.75;100.00
26489;BME280;14169;43.684;10.484;2023-03-23T05:32:24;101707.56;;;11.74;100.00
26489;BME280;14169;43.684;10.484;2023-03-23T05:34:55;101706.72;;;11.73;100.00
26489;BME280;14169;43.684;10.484;2023-03-23T05:37:20;101718.00;;;11.75;100.00
26489;BME280;14169;43.684;10.484;2023-03-23T05:39:45;101715.34;;;11.77;100.00
26489;BME280;14169;43.684;10.484;2023-03-23T05:42:11;101719.63;;;11.79;100.00
26489;BME280;14169;43.684;10.484;2023-03-23T05:44:36;101716.06;;;11.83;100.00
26489;BME280;14169;43.684;10.484;2023-03-23T05:47:03;101731.66;;;11.87;100.00
26489;BME280;14169;43.684;10.484;2023-03-23T05:49:28;101741.09;;;11.95;100.00
26489;BME280;14169;43.684;10.484;2023-03-23T05:51:54;101742.63;;;12.04;100.00
26489;BME280;14169;43.684;10.484;2023-03-23T05:54:19;101743.44;;;12.07;100.00
26489;BME280;14169;43.684;10.484;2023-03-23T05:56:45;101745.84;;;12.16;100.00
26489;BME280;14169;43.684;10.484;2023-03-23T05:59:11;101751.06;;;12.16;100.00
26489;BME280;14169;43.684;10.484;2023-03-23T06:01:37;101749.41;;;12.12;100.00
26489;BME280;14169;43.684;10.484;2023-03-23T06:04:03;101754.72;;;12.09;100.00
26489;BME280;14169;43.684;10.484;2023-03-23T06:06:29;101763.47;;;12.07;100.00
26489;BME280;14169;43.684;10.484;2023-03-23T06:08:56;101771.31;;;12.07;100.00
26489;BME280;14169;43.684;10.484;2023-03-23T06:11:22;101770.53;;;12.03;100.00
26489;BME280;14169;43.684;10.484;2023-03-23T06:13:48;101763.59;;;12.01;100.00
26489;BME280;14169;43.684;10.484;2023-03-23T06:16:14;101769.78;;;11.97;100.00
26489;BME280;14169;43.684;10.484;2023-03-23T06:18:39;101775.00;;;11.97;100.00
26489;BME280;14169;43.684;10.484;2023-03-23T06:21:06;101778.44;;;11.99;100.00
26489;BME280;14169;43.684;10.484;2023-03-23T06:23:33;101782.69;;;12.04;100.00
26489;BME280;14169;43.684;10.484;2023-03-23T06:26:04;101778.09;;;12.15;100.00
26489;BME280;14169;43.684;10.484;2023-03-23T06:28:31;101787.59;;;12.19;100.00
26489;BME280;14169;43.684;10.484;2023-03-23T06:31:04;101790.13;;;12.22;100.00
26489;BME280;14169;43.684;10.484;2023-03-23T06:33:32;101790.94;;;12.24;100.00
26489;BME280;14169;43.684;10.484;2023-03-23T06:36:00;101794.44;;;12.25;100.00
26489;BME280;14169;43.684;10.484;2023-03-23T06:38:25;101786.44;;;12.31;100.00
26489;BME280;14169;43.684;10.484;2023-03-23T06:40:55;101787.31;;;12.31;100.00
26489;BME280;14169;43.684;10.484;2023-03-23T06:43:21;101789.81;;;12.36;100.00
26489;BME280;14169;43.684;10.484;2023-03-23T06:45:47;101789.66;;;12.42;100.00
26489;BME280;14169;43.684;10.484;2023-03-23T06:48:12;101784.34;;;12.46;100.00
26489;BME280;14169;43.684;10.484;2023-03-23T06:50:38;101797.31;;;12.51;100.00
26489;BME280;14169;43.684;10.484;2023-03-23T06:53:04;101792.84;;;12.56;100.00
26489;BME280;14169;43.684;10.484;2023-03-23T06:55:32;101800.53;;;12.62;100.00
26489;BME280;14169;43.684;10.484;2023-03-23T06:57:57;101793.41;;;12.69;100.00
26489;BME280;14169;43.684;10.484;2023-03-23T07:00:24;101792.41;;;12.74;100.00
26489;BME280;14169;43.684;10.484;2023-03-23T07:02:50;101800.06;;;12.82;100.00
26489;BME280;14169;43.684;10.484;2023-03-23T07:05:15;101797.28;;;12.89;100.00
26489;BME280;14169;43.684;10.484;2023-03-23T07:07:41;101799.66;;;12.98;100.00
26489;BME280;14169;43.684;10.484;2023-03-23T07:10:08;101795.13;;;13.05;100.00
26489;BME280;14169;43.684;10.484;2023-03-23T07:12:37;101796.69;;;13.12;100.00
26489;BME280;14169;43.684;10.484;2023-03-23T07:15:04;101800.03;;;13.18;100.00
26489;BME280;14169;43.684;10.484;2023-03-23T07:17:30;101799.94;;;13.23;100.00
26489;BME280;14169;43.684;10.484;2023-03-23T07:19:55;101809.28;;;13.31;100.00
26489;BME280;14169;43.684;10.484;2023-03-23T07:22:21;101798.63;;;13.39;100.00
26489;BME280;14169;43.684;10.484;2023-03-23T07:24:46;101807.25;;;13.42;100.00
26489;BME280;14169;43.684;10.484;2023-03-23T07:27:12;101797.50;;;13.47;100.00
26489;BME280;14169;43.684;10.484;2023-03-23T07:29:39;101797.28;;;13.57;100.00
26489;BME280;14169;43.684;10.484;2023-03-23T07:32:05;101789.91;;;13.71;100.00
26489;BME280;14169;43.684;10.484;2023-03-23T07:34:31;101786.06;;;13.82;100.00
26489;BME280;14169;43.684;10.484;2023-03-23T07:36:58;101792.78;;;13.92;100.00
26489;BME280;14169;43.684;10.484;2023-03-23T07:39:24;101783.78;;;14.01;100.00
26489;BME280;14169;43.684;10.484;2023-03-23T07:41:51;101788.75;;;14.10;100.00
26489;BME280;14169;43.684;10.484;2023-03-23T07:44:16;101789.78;;;14.04;100.00
26489;BME280;14169;43.684;10.484;2023-03-23T07:46:42;101796.34;;;14.19;100.00
26489;BME280;14169;43.684;10.484;2023-03-23T07:49:08;101797.75;;;14.30;100.00
26489;BME280;14169;43.684;10.484;2023-03-23T07:51:34;101797.44;;;14.41;100.00
26489;BME280;14169;43.684;10.484;2023-03-23T07:54:00;101794.34;;;14.56;100.00
26489;BME280;14169;43.684;10.484;2023-03-23T07:56:28;101788.78;;;14.67;100.00
26489;BME280;14169;43.684;10.484;2023-03-23T07:58:53;101794.56;;;14.76;100.00
26489;BME280;14169;43.684;10.484;2023-03-23T08:01:19;101791.41;;;14.93;100.00
26489;BME280;14169;43.684;10.484;2023-03-23T08:03:44;101795.19;;;15.10;100.00
26489;BME280;14169;43.684;10.484;2023-03-23T08:06:10;101800.91;;;15.22;100.00
26489;BME280;14169;43.684;10.484;2023-03-23T08:08:35;101794.19;;;15.39;100.00
26489;BME280;14169;43.684;10.484;2023-03-23T08:11:04;101797.84;;;15.60;100.00
26489;BME280;14169;43.684;10.484;2023-03-23T08:13:30;101806.97;;;15.74;100.00
26489;BME280;14169;43.684;10.484;2023-03-23T08:15:55;101799.00;;;15.99;100.00
26489;BME280;14169;43.684;10.484;2023-03-23T08:18:22;101808.75;;;16.20;100.00
26489;BME280;14169;43.684;10.484;2023-03-23T08:20:47;101806.28;;;16.39;100.00
26489;BME280;14169;43.684;10.484;2023-03-23T08:23:14;101820.69;;;16.52;100.00
26489;BME280;14169;43.684;10.484;2023-03-23T08:25:41;101826.91;;;16.71;100.00
26489;BME280;14169;43.684;10.484;2023-03-23T08:28:08;101825.28;;;16.90;100.00
26489;BME280;14169;43.684;10.484;2023-03-23T08:30:34;101829.13;;;16.81;100.00
26489;BME280;14169;43.684;10.484;2023-03-23T08:33:01;101830.72;;;16.85;100.00
26489;BME280;14169;43.684;10.484;2023-03-23T08:35:27;101840.69;;;16.99;100.00
26489;BME280;14169;43.684;10.484;2023-03-23T08:37:53;101836.59;;;16.92;100.00
26489;BME280;14169;43.684;10.484;2023-03-23T08:40:21;101841.16;;;17.09;100.00
26489;BME280;14169;43.684;10.484;2023-03-23T08:42:48;101840.91;;;17.36;100.00
26489;BME280;14169;43.684;10.484;2023-03-23T08:45:17;101844.13;;;17.43;100.00
26489;BME280;14169;43.684;10.484;2023-03-23T08:47:43;101836.31;;;17.41;100.00
26489;BME280;14169;43.684;10.484;2023-03-23T08:50:11;101839.06;;;17.17;100.00
26489;BME280;14169;43.684;10.484;2023-03-23T08:52:38;101833.75;;;17.40;100.00
26489;BME280;14169;43.684;10.484;2023-03-23T08:55:04;101836.31;;;17.41;100.00
26489;BME280;14169;43.684;10.484;2023-03-23T08:57:30;101832.59;;;17.65;100.00
26489;BME280;14169;43.684;10.484;2023-03-23T08:59:55;101840.16;;;17.33;100.00
26489;BME280;14169;43.684;10.484;2023-03-23T09:02:26;101846.25;;;17.13;100.00
26489;BME280;14169;43.684;10.484;2023-03-23T09:04:52;101842.59;;;16.96;100.00
26489;BME280;14169;43.684;10.484;2023-03-23T09:07:18;101848.28;;;16.85;100.00
26489;BME280;14169;43.684;10.484;2023-03-23T09:09:44;101847.47;;;16.83;100.00
26489;BME280;14169;43.684;10.484;2023-03-23T09:12:10;101842.97;;;16.87;100.00
26489;BME280;14169;43.684;10.484;2023-03-23T09:14:37;101848.72;;;16.74;100.00
26489;BME280;14169;43.684;10.484;2023-03-23T09:17:04;101849.78;;;16.70;100.00
26489;BME280;14169;43.684;10.484;2023-03-23T09:19:31;101852.50;;;16.67;100.00
26489;BME280;14169;43.684;10.484;2023-03-23T09:21:58;101854.81;;;16.97;100.00
26489;BME280;14169;43.684;10.484;2023-03-23T09:24:23;101853.88;;;17.19;100.00
26489;BME280;14169;43.684;10.484;2023-03-23T09:26:49;101847.38;;;17.49;100.00
26489;BME280;14169;43.684;10.484;2023-03-23T09:29:14;101853.69;;;17.86;100.00
26489;BME280;14169;43.684;10.484;2023-03-23T09:31:40;101852.03;;;17.83;100.00
26489;BME280;14169;43.684;10.484;2023-03-23T09:34:07;101853.81;;;17.62;100.00
26489;BME280;14169;43.684;10.484;2023-03-23T09:36:35;101860.28;;;17.35;100.00
26489;BME280;14169;43.684;10.484;2023-03-23T09:39:01;101862.22;;;17.30;100.00
26489;BME280;14169;43.684;10.484;2023-03-23T09:52:13;101863.28;;;17.26;100.00
26489;BME280;14169;43.684;10.484;2023-03-23T09:54:41;101861.19;;;17.13;100.00
26489;BME280;14169;43.684;10.484;2023-03-23T09:57:28;101860.69;;;17.03;100.00
26489;BME280;14169;43.684;10.484;2023-03-23T10:00:03;101864.81;;;17.10;100.00
26489;BME280;14169;43.684;10.484;2023-03-23T10:02:40;101860.22;;;16.94;100.00
26489;BME280;14169;43.684;10.484;2023-03-23T10:05:27;101859.94;;;17.21;100.00
26489;BME280;14169;43.684;10.484;2023-03-23T10:07:55;101854.47;;;17.47;100.00
26489;BME280;14169;43.684;10.484;2023-03-23T10:10:26;101858.69;;;17.72;100.00
26489;BME280;14169;43.684;10.484;2023-03-23T10:15:54;101865.41;;;18.17;100.00
26489;BME280;14169;43.684;10.484;2023-03-23T10:18:25;101856.88;;;18.12;100.00
26489;BME280;14169;43.684;10.484;2023-03-23T10:20:59;101849.78;;;18.13;100.00
26489;BME280;14169;43.684;10.484;2023-03-23T10:28:48;101849.69;;;18.34;100.00
26489;BME280;14169;43.684;10.484;2023-03-23T10:31:24;101841.00;;;18.51;100.00
26489;BME280;14169;43.684;10.484;2023-03-23T10:33:54;101851.25;;;18.76;100.00
26489;BME280;14169;43.684;10.484;2023-03-23T10:36:40;101850.06;;;18.64;100.00
26489;BME280;14169;43.684;10.484;2023-03-23T10:41:37;101844.28;;;18.56;100.00
26489;BME280;14169;43.684;10.484;2023-03-23T10:44:10;101845.28;;;18.53;100.00
26489;BME280;14169;43.684;10.484;2023-03-23T10:49:17;101842.56;;;19.09;100.00
26489;BME280;14169;43.684;10.484;2023-03-23T10:51:56;101843.84;;;19.19;100.00
26489;BME280;14169;43.684;10.484;2023-03-23T10:54:31;101830.91;;;19.82;100.00
26489;BME280;14169;43.684;10.484;2023-03-23T10:56:57;101844.94;;;19.82;100.00
26489;BME280;14169;43.684;10.484;2023-03-23T10:59:29;101838.13;;;19.78;100.00
26489;BME280;14169;43.684;10.484;2023-03-23T11:01:58;101837.84;;;20.33;100.00
26489;BME280;14169;43.684;10.484;2023-03-23T11:04:25;101829.22;;;20.45;100.00
26489;BME280;14169;43.684;10.484;2023-03-23T11:06:53;101836.25;;;20.77;100.00
26489;BME280;14169;43.684;10.484;2023-03-23T11:09:32;101830.22;;;21.34;100.00
26489;BME280;14169;43.684;10.484;2023-03-23T11:11:58;101834.91;;;21.15;100.00
26489;BME280;14169;43.684;10.484;2023-03-23T11:14:31;101847.13;;;20.24;100.00
26489;BME280;14169;43.684;10.484;2023-03-23T11:16:59;101845.75;;;19.67;100.00
26489;BME280;14169;43.684;10.484;2023-03-23T11:19:28;101839.66;;;19.50;100.00
26489;BME280;14169;43.684;10.484;2023-03-23T11:24:33;101836.63;;;19.90;100.00
26489;BME280;14169;43.684;10.484;2023-03-23T11:26:59;101835.72;;;20.39;100.00
26489;BME280;14169;43.684;10.484;2023-03-23T11:29:27;101834.09;;;20.68;100.00
26489;BME280;14169;43.684;10.484;2023-03-23T11:34:32;101823.59;;;20.51;100.00
26489;BME280;14169;43.684;10.484;2023-03-23T11:37:08;101827.50;;;20.28;100.00
26489;BME280;14169;43.684;10.484;2023-03-23T11:45:33;101823.72;;;20.16;100.00
26489;BME280;14169;43.684;10.484;2023-03-23T11:53:56;101817.94;;;20.41;100.00
26489;BME280;14169;43.684;10.484;2023-03-23T11:56:32;101813.50;;;20.57;100.00
26489;BME280;14169;43.684;10.484;2023-03-23T11:58:59;101812.13;;;20.50;100.00
26489;BME280;14169;43.684;10.484;2023-03-23T12:20:00;101791.03;;;20.80;98.24
26489;BME280;14169;43.684;10.484;2023-03-23T12:23:07;101791.72;;;21.13;100.00
26489;BME280;14169;43.684;10.484;2023-03-23T12:31:22;101778.78;;;21.23;100.00
26489;BME280;14169;43.684;10.484;2023-03-23T12:45:13;101765.22;;;21.57;98.38
26489;BME280;14169;43.684;10.484;2023-03-23T12:47:46;101771.28;;;22.01;94.81
26489;BME280;14169;43.684;10.484;2023-03-23T12:50:23;101763.13;;;21.90;92.44
26489;BME280;14169;43.684;10.484;2023-03-23T12:52:55;101764.75;;;21.50;94.50
26489;BME280;14169;43.684;10.484;2023-03-23T12:58:23;101761.31;;;20.75;100.00
26489;BME280;14169;43.684;10.484;2023-03-23T13:08:37;101767.13;;;20.81;100.00
26489;BME280;14169;43.684;10.484;2023-03-23T13:11:10;101763.97;;;21.04;100.00
26489;BME280;14169;43.684;10.484;2023-03-23T13:14:02;101751.41;;;21.22;100.00
26489;BME280;14169;43.684;10.484;2023-03-23T13:24:39;101750.59;;;22.61;89.41
26489;BME280;14169;43.684;10.484;2023-03-23T13:27:08;101744.66;;;22.70;86.69
26489;BME280;14169;43.684;10.484;2023-03-23T13:29:43;101748.06;;;22.72;86.50
26489;BME280;14169;43.684;10.484;2023-03-23T13:32:16;101751.69;;;23.10;86.02
26489;BME280;14169;43.684;10.484;2023-03-23T13:34:42;101762.84;;;23.03;81.62
26489;BME280;14169;43.684;10.484;2023-03-23T13:37:26;101749.81;;;22.18;83.34
26489;BME280;14169;43.684;10.484;2023-03-23T13:40:11;101749.69;;;21.51;86.61
26489;BME280;14169;43.684;10.484;2023-03-23T13:42:52;101744.03;;;21.13;93.24
26489;BME280;14169;43.684;10.484;2023-03-23T13:48:39;101743.34;;;21.81;95.67
26489;BME280;14169;43.684;10.484;2023-03-23T13:50:58;101742.56;;;22.08;91.42
26489;BME280;14169;43.684;10.484;2023-03-23T13:53:29;101741.22;;;22.29;88.47
26489;BME280;14169;43.684;10.484;2023-03-23T13:58:32;101735.53;;;22.74;84.70
26489;BME280;14169;43.684;10.484;2023-03-23T14:03:39;101733.19;;;23.09;79.87
26489;BME280;14169;43.684;10.484;2023-03-23T14:06:12;101737.75;;;23.07;79.37
26489;BME280;14169;43.684;10.484;2023-03-23T14:08:42;101742.34;;;23.17;76.83
26489;BME280;14169;43.684;10.484;2023-03-23T14:11:17;101738.06;;;22.63;78.45
26489;BME280;14169;43.684;10.484;2023-03-23T14:16:34;101728.28;;;22.37;86.43
26489;BME280;14169;43.684;10.484;2023-03-23T14:19:03;101728.41;;;22.75;85.64
26489;BME280;14169;43.684;10.484;2023-03-23T14:21:37;101724.31;;;22.96;82.85
26489;BME280;14169;43.684;10.484;2023-03-23T14:24:11;101717.97;;;22.59;84.03
26489;BME280;14169;43.684;10.484;2023-03-23T14:29:03;101709.28;;;23.21;83.23
26489;BME280;14169;43.684;10.484;2023-03-23T14:31:30;101716.09;;;23.63;76.39
26489;BME280;14169;43.684;10.484;2023-03-23T14:33:56;101716.16;;;23.74;77.38
26489;BME280;14169;43.684;10.484;2023-03-23T14:36:28;101709.13;;;23.61;76.70
26489;BME280;14169;43.684;10.484;2023-03-23T14:39:22;101716.81;;;23.15;76.94
26489;BME280;14169;43.684;10.484;2023-03-23T14:41:49;101713.31;;;22.88;82.97
26489;BME280;14169;43.684;10.484;2023-03-23T14:44:29;101718.41;;;22.78;80.81
26489;BME280;14169;43.684;10.484;2023-03-23T14:46:56;101708.41;;;22.69;83.06
26489;BME280;14169;43.684;10.484;2023-03-23T14:49:42;101705.78;;;22.82;84.41
26489;BME280;14169;43.684;10.484;2023-03-23T14:52:16;101709.72;;;22.89;84.96
26489;BME280;14169;43.684;10.484;2023-03-23T14:54:46;101710.84;;;22.72;84.50